Data for 04/28/2009

Time Sea-Level Adjusted Pressure Absolute Pressure Temperature Relative Humidity Dew Point   
(mb) (inHg) (mb) (inHg) (C) (F) (%) (C) (F)
00:05 1014 29.94 844 24.92 3.1 37.5 83 0.5 32.8
00:10 1014 29.94 844 24.92 3 37.5 83 0.5 32.9
00:15 1014 29.94 844 24.92 3 37.4 84 0.5 32.9
00:20 1014 29.94 844 24.92 2.9 37.3 84 0.4 32.8
00:25 1014 29.94 844 24.92 2.9 37.2 84 0.5 32.8
00:30 1014 29.94 844 24.92 2.9 37.2 83 0.3 32.6
00:35 1014 29.94 844 24.92 2.8 37.1 83 0.3 32.5
00:40 1015 29.97 844 24.92 2.1 35.8 87 0.1 32.3
00:45 1015 29.97 844 24.92 1.6 34.8 89 -0 32
00:50 1015 29.97 844 24.92 1.1 34.1 90 -0.3 31.4
00:55 1015 29.97 844 24.92 1.1 34 88 -0.6 30.9
01:00 1015 29.97 844 24.92 1.1 34 90 -0.3 31.4
01:05 1015 29.97 844 24.92 0.8 33.5 91 -0.5 31.1
01:10 1015 29.97 844 24.92 0.9 33.6 90 -0.6 30.9
01:15 1015 29.97 844 24.92 0.6 33.1 91 -0.6 30.8
01:20 1015 29.97 844 24.92 0.7 33.3 90 -0.7 30.7
01:25 1015 29.97 844 24.92 0.8 33.4 91 -0.6 31
01:30 1015 29.97 844 24.92 0.7 33.3 90 -0.8 30.6
01:35 1015 29.97 844 24.92 0.9 33.5 89 -0.8 30.5
01:40 1015 29.97 844 24.92 0.8 33.4 89 -0.9 30.4
01:45 1015 29.97 844 24.92 0.7 33.3 88 -1 30.2
01:50 1015 29.97 844 24.92 0.5 32.9 88 -1.2 29.8
01:55 1015 29.97 844 24.92 0.4 32.8 90 -1.1 30
02:00 1015 29.97 844 24.92 0.5 32.9 88 -1.2 29.8
02:05 1015 29.97 844 24.92 0.5 32.9 88 -1.2 29.8
02:10 1015 29.97 844 24.92 0.6 33.1 88 -1.1 30
02:15 1015 29.97 844 24.92 0.6 33 88 -1.1 30
02:20 1015 29.97 844 24.92 0.5 32.8 89 -1.2 29.9
02:25 1015 29.97 844 24.92 0.4 32.7 89 -1.2 29.8
02:30 1015 29.97 844 24.92 0.4 32.7 89 -1.2 29.8
02:35 1015 29.97 844 24.92 0.3 32.6 89 -1.3 29.7
02:40 1015 29.97 844 24.92 0.2 32.4 90 -1.3 29.7
02:45 1014 29.94 844 24.92 0.2 32.4 89 -1.4 29.5
02:50 1014 29.94 844 24.92 0.2 32.4 89 -1.4 29.5
02:55 1014 29.94 844 24.92 0.1 32.3 89 -1.5 29.3
03:00 1014 29.94 844 24.92 0.1 32.2 89 -1.6 29.2
03:05 1014 29.94 844 24.92 0.1 32.2 88 -1.6 29.2
03:10 1014 29.94 844 24.92 0.1 32.1 89 -1.6 29.2
03:15 1014 29.94 843 24.89 0.1 32.2 89 -1.5 29.3
03:20 1014 29.94 843 24.89 0.2 32.4 88 -1.5 29.4
03:25 1014 29.94 843 24.89 0.2 32.3 89 -1.5 29.3
03:30 1014 29.94 843 24.89 0.1 32.2 89 -1.5 29.3
03:35 1014 29.94 843 24.89 0.1 32.1 88 -1.6 29
03:40 1014 29.94 843 24.89 -0 31.9 89 -1.7 29
03:45 1014 29.94 843 24.89 -0.1 31.9 89 -1.6 29.1
03:50 1014 29.94 843 24.89 0.1 32.1 89 -1.6 29.2
03:55 1014 29.94 843 24.89 0.1 32.1 89 -1.5 29.2
04:00 1014 29.94 843 24.89 0.1 32.2 89 -1.5 29.3
04:05 1014 29.94 843 24.89 -0.1 31.8 91 -1.4 29.4
04:10 1014 29.94 843 24.89 -0.2 31.6 91 -1.5 29.3
04:15 1014 29.94 843 24.89 -0.3 31.5 91 -1.5 29.2
04:20 1014 29.94 843 24.89 -0.3 31.4 92 -1.5 29.3
04:25 1014 29.94 843 24.89 -0.4 31.2 93 -1.5 29.4
04:30 1014 29.94 843 24.89 -0.4 31.3 92 -1.5 29.3
04:35 1014 29.94 843 24.89 -0.4 31.3 92 -1.5 29.3
04:40 1014 29.94 843 24.89 -0.4 31.2 92 -1.5 29.3
04:45 1014 29.94 843 24.89 -0.4 31.2 92 -1.5 29.3
04:50 1014 29.94 843 24.89 -0.3 31.4 92 -1.5 29.2
04:55 1014 29.94 843 24.89 -0.4 31.3 93 -1.5 29.4
05:00 1014 29.94 843 24.89 -0.5 31.1 93 -1.5 29.3
05:05 1014 29.94 843 24.89 -0.6 31 93 -1.6 29.1
05:10 1014 29.94 843 24.89 -0.6 30.9 93 -1.7 29
05:15 1014 29.94 843 24.89 -0.5 31 92 -1.7 28.9
05:20 1014 29.94 843 24.89 -0.6 30.9 93 -1.7 29
05:25 1014 29.94 843 24.89 -0.6 31 92 -1.7 28.9
05:30 1014 29.94 843 24.89 -0.5 31.2 91 -1.7 28.9
05:35 1014 29.94 843 24.89 -0.5 31.1 92 -1.6 29.1
05:40 1014 29.94 843 24.89 -0.5 31.1 92 -1.7 29
05:45 1014 29.94 843 24.89 -0.5 31 92 -1.6 29.1
05:50 1013 29.91 843 24.89 -0.5 31.1 92 -1.6 29.1
05:55 1013 29.91 842 24.86 -0.5 31.1 93 -1.6 29.2
06:00 1014 29.94 843 24.89 -0.6 31 93 -1.6 29.1
06:05 1013 29.91 843 24.89 -0.6 30.8 94 -1.6 29.2
06:10 1013 29.91 843 24.89 -0.7 30.7 94 -1.6 29.1
06:15 1013 29.91 843 24.89 -0.8 30.5 94 -1.6 29.1
06:20 1013 29.91 843 24.89 -0.9 30.5 94 -1.7 29
06:25 1014 29.94 843 24.89 -1 30.2 94 -1.8 28.7
06:30 1014 29.94 843 24.89 -1 30.1 95 -1.8 28.8
06:35 1014 29.94 843 24.89 -0.9 30.3 94 -1.8 28.8
06:40 1014 29.94 843 24.89 -0.9 30.4 95 -1.7 29
06:45 1014 29.94 843 24.89 -0.8 30.5 94 -1.6 29.1
06:50 1014 29.94 843 24.89 -0.8 30.5 94 -1.7 28.9
06:55 1014 29.94 843 24.89 -0.9 30.4 94 -1.7 28.9
07:00 1014 29.94 843 24.89 -0.9 30.3 94 -1.8 28.8
07:05 1014 29.94 843 24.89 -0.9 30.3 94 -1.8 28.7
07:10 1014 29.94 843 24.89 -1 30.2 94 -1.9 28.6
07:15 1014 29.94 843 24.89 -1 30.2 94 -1.8 28.8
07:20 1014 29.94 843 24.89 -0.8 30.5 94 -1.7 28.9
07:25 1014 29.94 843 24.89 -0.9 30.5 94 -1.8 28.8
07:30 1014 29.94 843 24.89 -0.9 30.4 93 -1.9 28.7
07:35 1013 29.91 843 24.89 -1 30.2 94 -1.9 28.6
07:40 1013 29.91 843 24.89 -0.9 30.3 94 -1.8 28.7
07:45 1013 29.91 843 24.89 -0.9 30.3 94 -1.8 28.7
07:50 1013 29.91 843 24.89 -0.9 30.4 93 -1.9 28.6
07:55 1013 29.91 843 24.89 -0.9 30.3 93 -1.9 28.5
08:00 1013 29.91 843 24.89 -1 30.3 94 -1.9 28.6
08:05 1013 29.91 843 24.89 -0.9 30.4 94 -1.7 28.9
08:10 1013 29.91 843 24.89 -0.7 30.7 93 -1.8 28.8
08:15 1013 29.91 843 24.89 -0.8 30.5 94 -1.7 28.9
08:20 1013 29.91 843 24.89 -0.8 30.5 92 -2 28.5
08:25 1013 29.91 843 24.89 -0.9 30.4 93 -1.9 28.6
08:30 1013 29.91 843 24.89 -0.8 30.5 92 -2 28.5
08:35 1013 29.91 843 24.89 -1 30.3 93 -1.9 28.5
08:40 1013 29.91 843 24.89 -0.9 30.4 92 -2 28.4
08:45 1013 29.91 843 24.89 -1 30.2 93 -1.9 28.5
08:50 1013 29.91 843 24.89 -1.1 30.1 94 -1.9 28.5
08:55 1013 29.91 843 24.89 -1 30.2 94 -1.8 28.7
09:00 1013 29.91 842 24.86 -0.9 30.4 94 -1.7 28.9
09:05 1013 29.91 843 24.89 -0.8 30.6 93 -1.7 28.9
09:10 1013 29.91 843 24.89 -0.7 30.7 93 -1.8 28.8
09:15 1013 29.91 842 24.86 -0.8 30.6 93 -1.7 28.9
09:20 1013 29.91 842 24.86 -0.8 30.6 93 -1.8 28.8
09:25 1013 29.91 842 24.86 -0.8 30.6 93 -1.8 28.8
09:30 1013 29.91 842 24.86 -0.7 30.7 93 -1.7 28.9
09:35 1013 29.91 842 24.86 -0.7 30.7 93 -1.8 28.8
09:40 1013 29.91 842 24.86 -0.6 30.9 92 -1.8 28.8
09:45 1013 29.91 842 24.86 -0.5 31 91 -1.8 28.7
09:50 1013 29.91 842 24.86 -0.6 31 92 -1.8 28.8
09:55 1013 29.91 842 24.86 -0.5 31.1 91 -1.8 28.8
10:00 1013 29.91 842 24.86 -0.5 31.1 91 -1.8 28.7
10:05 1013 29.91 842 24.86 -0.5 31.1 90 -1.9 28.6
10:10 1013 29.91 842 24.86 -0.6 31 91 -1.9 28.5
10:15 1013 29.91 842 24.86 -0.7 30.8 91 -1.9 28.5
10:20 1013 29.91 842 24.86 -0.7 30.8 92 -1.8 28.8
10:25 1013 29.91 842 24.86 -0.6 31 91 -1.8 28.7
10:30 1013 29.91 842 24.86 -0.6 30.9 91 -1.9 28.6
10:35 1013 29.91 842 24.86 -0.6 31 91 -1.8 28.8
10:40 1013 29.91 842 24.86 -0.5 31.1 91 -1.8 28.7
10:45 1013 29.91 842 24.86 -0.4 31.3 91 -1.7 28.9
10:50 1013 29.91 842 24.86 -0.5 31 92 -1.8 28.8
10:55 1013 29.91 842 24.86 -0.5 31.2 91 -1.7 29
11:00 1013 29.91 842 24.86 -0.3 31.5 90 -1.7 29
11:05 1013 29.91 842 24.86 -0.3 31.5 90 -1.7 28.9
11:10 1013 29.91 842 24.86 -0.3 31.5 91 -1.6 29
11:15 1013 29.91 842 24.86 -0.4 31.3 91 -1.7 29
11:20 1013 29.91 842 24.86 -0.4 31.2 91 -1.7 29
11:25 1013 29.91 842 24.86 -0.3 31.4 90 -1.7 28.9
11:30 1013 29.91 842 24.86 -0.4 31.3 92 -1.5 29.3
11:35 1013 29.91 842 24.86 -0.2 31.6 92 -1.4 29.5
11:40 1013 29.91 842 24.86 -0.1 31.8 90 -1.6 29.1
11:45 1013 29.91 842 24.86 -0 31.9 90 -1.5 29.3
11:50 1013 29.91 842 24.86 -0 31.9 89 -1.6 29.2
11:55 1013 29.91 842 24.86 -0 31.9 89 -1.6 29.2
12:00 1013 29.91 842 24.86 0.1 32.2 89 -1.5 29.3
12:05 1013 29.91 842 24.86 0.1 32.2 89 -1.5 29.2
12:10 1013 29.91 842 24.86 -0.1 31.9 89 -1.6 29.1
12:15 1013 29.91 842 24.86 -0.1 31.8 91 -1.5 29.3
12:20 1013 29.91 842 24.86 -0 32 90 -1.5 29.2
12:25 1013 29.91 843 24.89 -0 32 89 -1.6 29.1
12:30 1013 29.91 843 24.89 0 32 90 -1.4 29.4
12:35 1013 29.91 843 24.89 0.1 32.2 90 -1.4 29.5
12:40 1013 29.91 843 24.89 0.1 32.2 91 -1.2 29.8
12:45 1013 29.91 843 24.89 0.4 32.7 88 -1.3 29.6
12:50 1014 29.94 843 24.89 0.4 32.7 88 -1.4 29.4
12:55 1014 29.94 843 24.89 0.4 32.7 89 -1.3 29.7
13:00 1014 29.94 843 24.89 0.4 32.7 88 -1.3 29.6
13:05 1013 29.91 843 24.89 0.6 33.2 87 -1.4 29.6
13:10 1014 29.94 843 24.89 1 33.7 87 -1 30.2
13:15 1014 29.94 843 24.89 1.3 34.3 84 -1.1 30.1
13:20 1013 29.91 843 24.89 1.4 34.4 84 -1 30.2
13:25 1013 29.91 843 24.89 1.2 34.1 86 -0.9 30.3
13:30 1014 29.94 843 24.89 1.4 34.4 85 -0.8 30.5
13:35 1014 29.94 843 24.89 1.5 34.7 86 -0.7 30.8
13:40 1014 29.94 843 24.89 1.7 35.1 83 -0.9 30.3
13:45 1014 29.94 843 24.89 1.9 35.4 82 -0.8 30.5
13:50 1014 29.94 843 24.89 1.2 34.2 86 -0.8 30.5
13:55 1014 29.94 843 24.89 0.8 33.5 88 -1 30.2
14:00 1013 29.91 842 24.86 1.5 34.6 85 -0.8 30.6
14:05 1013 29.91 842 24.86 1.7 35.1 84 -0.6 30.8
14:10 1012 29.88 842 24.86 2.4 36.2 81 -0.5 31
14:15 1013 29.91 842 24.86 3.1 37.6 79 -0.2 31.6
14:20 1013 29.91 842 24.86 3.3 37.9 78 -0.2 31.6
14:25 1013 29.91 843 24.89 3.1 37.6 76 -0.7 30.7
14:30 1014 29.94 843 24.89 3 37.4 78 -0.5 31.1
14:35 1013 29.91 843 24.89 2.9 37.2 79 -0.5 31.2
14:40 1013 29.91 843 24.89 2.9 37.1 77 -0.7 30.7
14:45 1013 29.91 842 24.86 2.8 37 79 -0.6 30.9
14:50 1013 29.91 842 24.86 2.9 37.1 78 -0.7 30.8
14:55 1013 29.91 842 24.86 3.3 38 76 -0.4 31.2
15:00 1013 29.91 843 24.89 4 39.1 74 -0.3 31.4
15:05 1013 29.91 843 24.89 3.9 39.1 74 -0.3 31.5
15:10 1013 29.91 843 24.89 4.1 39.3 73 -0.4 31.3
15:15 1013 29.91 843 24.89 4 39.2 74 -0.2 31.6
15:20 1013 29.91 843 24.89 4.4 39.9 70 -0.6 30.9
15:25 1013 29.91 843 24.89 4.1 39.4 74 -0 31.9
15:30 1013 29.91 843 24.89 3.7 38.7 75 -0.3 31.5
15:35 1014 29.94 843 24.89 3.3 38 76 -0.5 31.1
15:40 1014 29.94 843 24.89 3.3 38 75 -0.7 30.8
15:45 1014 29.94 843 24.89 3.3 37.9 77 -0.4 31.3
15:50 1014 29.94 843 24.89 3.1 37.6 77 -0.5 31.2
15:55 1014 29.94 843 24.89 3 37.4 77 -0.7 30.8
16:00 1014 29.94 843 24.89 2.9 37.2 77 -0.7 30.7
16:05 1014 29.94 843 24.89 2.8 37.1 78 -0.7 30.8
16:10 1014 29.94 843 24.89 2.8 37 78 -0.6 30.9
16:15 1014 29.94 843 24.89 2.7 36.9 79 -0.6 31
16:20 1014 29.94 843 24.89 2.7 36.9 82 -0.1 31.8
16:25 1014 29.94 843 24.89 2.4 36.3 85 0.1 32.2
16:30 1014 29.94 843 24.89 1.8 35.2 89 0.1 32.3
16:35 1014 29.94 843 24.89 1.6 34.8 90 0.1 32.2
16:40 1014 29.94 843 24.89 1.5 34.7 90 0.1 32.1
16:45 1014 29.94 844 24.92 1.4 34.6 91 0.2 32.3
16:50 1014 29.94 844 24.92 1.3 34.4 92 0.1 32.2
16:55 1015 29.97 844 24.92 1.3 34.3 92 0.1 32.2
17:00 1015 29.97 844 24.92 1.2 34.2 92 0.1 32.2
17:05 1015 29.97 844 24.92 1.2 34.1 93 0.1 32.2
17:10 1015 29.97 844 24.92 1.3 34.4 92 0.2 32.3
17:15 1015 29.97 844 24.92 1.3 34.4 93 0.2 32.4
17:20 1015 29.97 844 24.92 1.3 34.4 92 0.2 32.4
17:25 1015 29.97 844 24.92 1.5 34.7 91 0.2 32.4
17:30 1015 29.97 844 24.92 1.7 35 91 0.4 32.7
17:35 1015 29.97 844 24.92 1.9 35.4 90 0.4 32.7
17:40 1015 29.97 844 24.92 2 35.5 90 0.6 33
17:45 1015 29.97 844 24.92 1.8 35.2 91 0.4 32.8
17:50 1015 29.97 844 24.92 1.5 34.7 92 0.4 32.7
17:55 1015 29.97 844 24.92 1.7 35 91 0.4 32.7
18:00 1015 29.97 845 24.95 1.3 34.3 94 0.4 32.7
18:05 1015 29.97 845 24.95 1.2 34.1 94 0.3 32.5
18:10 1015 29.97 844 24.92 1.2 34.1 93 0.1 32.3
18:15 1015 29.97 845 24.95 0.9 33.5 95 0.2 32.3
18:20 1016 30 845 24.95 0.7 33.2 95 0 32.1
18:25 1016 30 845 24.95 0.6 33.1 96 0.1 32.1
18:30 1016 30 845 24.95 0.6 33.1 96 0.1 32.1
18:35 1016 30 845 24.95 0.6 33 96 0 32.1
18:40 1016 30 845 24.95 0.6 33 97 0.1 32.1
18:45 1016 30 845 24.95 0.7 33.3 96 0.2 32.3
18:50 1016 30 845 24.95 0.9 33.5 95 0.1 32.2
18:55 1016 30 845 24.95 0.8 33.5 94 0 32
19:00 1016 30 845 24.95 0.8 33.4 94 -0 32
19:05 1016 30 845 24.95 0.6 33.1 94 -0.2 31.6
19:10 1016 30 845 24.95 0.4 32.7 95 -0.3 31.5
19:15 1016 30 845 24.95 0.4 32.8 95 -0.3 31.5
19:20 1016 30 845 24.95 0.5 32.8 94 -0.4 31.4
19:25 1016 30 845 24.95 0.3 32.5 95 -0.4 31.2
19:30 1016 30 845 24.95 0.2 32.3 95 -0.5 31.1
19:35 1016 30 845 24.95 0.1 32.2 95 -0.6 31
19:40 1016 30 845 24.95 0.1 32.2 95 -0.5 31
19:45 1016 30 845 24.95 0.1 32.1 95 -0.6 31
19:50 1016 30 846 24.98 -0.1 31.9 96 -0.6 30.9
19:55 1016 30 846 24.98 -0.1 31.9 96 -0.6 30.9
20:00 1016 30 846 24.98 -0.1 31.8 96 -0.6 30.9
20:05 1016 30 846 24.98 -0.2 31.7 97 -0.7 30.8
20:10 1016 30 846 24.98 -0.3 31.5 97 -0.7 30.7
20:15 1016 30 846 24.98 -0.2 31.6 97 -0.7 30.7
20:20 1016 30 846 24.98 -0.3 31.5 96 -0.8 30.6
20:25 1016 30 845 24.95 -0.4 31.3 97 -0.8 30.5
20:30 1016 30 845 24.95 -0.3 31.4 96 -0.8 30.5
20:35 1016 30 845 24.95 -0.3 31.5 97 -0.8 30.6
20:40 1016 30 845 24.95 -0.3 31.4 96 -0.8 30.5
20:45 1016 30 845 24.95 -0.4 31.3 96 -1 30.3
20:50 1016 30 846 24.98 -0.6 30.9 97 -1 30.1
20:55 1016 30 846 24.98 -0.7 30.7 97 -1.2 29.9
21:00 1016 30 846 24.98 -0.8 30.5 97 -1.2 29.9
21:05 1016 30 846 24.98 -0.8 30.6 97 -1.2 29.9
21:10 1016 30 846 24.98 -0.8 30.6 97 -1.2 29.9
21:15 1017 30.03 846 24.98 -0.9 30.4 97 -1.3 29.7
21:20 1016 30 846 24.98 -1 30.3 97 -1.3 29.6
21:25 1016 30 846 24.98 -0.9 30.3 97 -1.3 29.6
21:30 1017 30.03 846 24.98 -1 30.2 97 -1.4 29.4
21:35 1017 30.03 846 24.98 -1.1 30.1 98 -1.4 29.5
21:40 1017 30.03 846 24.98 -1.1 30.1 97 -1.5 29.4
21:45 1017 30.03 846 24.98 -1.1 30 97 -1.5 29.3
21:50 1017 30.03 846 24.98 -1.1 30 97 -1.4 29.4
21:55 1017 30.03 846 24.98 -1 30.2 98 -1.3 29.6
22:00 1017 30.03 846 24.98 -0.9 30.3 97 -1.3 29.6
22:05 1017 30.03 846 24.98 -0.9 30.3 97 -1.3 29.7
22:10 1017 30.03 846 24.98 -1 30.2 97 -1.5 29.4
22:15 1016 30 846 24.98 -1.1 30.1 97 -1.4 29.4
22:20 1016 30 846 24.98 -1 30.1 97 -1.5 29.3
22:25 1016 30 846 24.98 -1.1 30 97 -1.6 29.1
22:30 1016 30 845 24.95 -1.1 30 97 -1.5 29.3
22:35 1016 30 845 24.95 -1.1 30 97 -1.5 29.3
22:40 1016 30 845 24.95 -1.1 30 97 -1.5 29.2
22:45 1016 30 846 24.98 -1.2 29.8 97 -1.7 29
22:50 1016 30 845 24.95 -1.3 29.6 97 -1.8 28.8
22:55 1016 30 846 24.98 -1.3 29.6 97 -1.8 28.8
23:00 1016 30 845 24.95 -1.3 29.6 96 -1.8 28.7
23:05 1016 30 845 24.95 -1.4 29.5 96 -1.9 28.6
23:10 1016 30 845 24.95 -1.3 29.6 97 -1.8 28.7
23:15 1016 30 845 24.95 -1.2 29.9 96 -1.7 28.9
23:20 1016 30 845 24.95 -1.2 29.8 96 -1.8 28.8
23:25 1016 30 845 24.95 -1.2 29.9 96 -1.8 28.8
23:30 1016 30 845 24.95 -1.2 29.8 96 -1.8 28.8
23:35 1016 30 845 24.95 -1.2 29.9 96 -1.7 28.9
23:40 1016 30 845 24.95 -1.3 29.7 96 -1.8 28.7
23:45 1016 30 845 24.95 -1.3 29.6 96 -1.8 28.7
23:50 1016 30 845 24.95 -1.3 29.6 96 -1.8 28.7
23:55 1016 30 845 24.95 -1.3 29.6 96 -1.8 28.7
24:00 1016 30 845 24.95 -1.4 29.5 96 -1.9 28.6